Ana Sayfa
METAR-TAF:

METAR-TAF

Havaalanları :

Bridgeport Municipal Airport

Bridgeport, Teksas, Amerika Birleşik Devletleri

Enlem: 33-10-31N, Boylam: 097-49-42W, yükseklik: 260 m

Güncel hava durumu gözlemi

Rapor saat 20:55 UTC de 18 dakika önce yapıldı.
Rüzgar güneydan 8 kt
Sıcaklık 13°C
Nem 88%
Basınç 1014 hPa
Görüş mesafesi: 16.1 km
11000 ft yükseklikte parçalı çok bulutlu
hafif çisenti

METAR: KXBP 232055Z AUTO 17008KT 10SM -DZ BKN110 13/11 A2993 RMK AO2 T01340106

Saat: 15:13 (21:13 UTC)


TAF: eksik

4.000'den fazla havaalanı için hava durumu gözlemleri ve tahminleri (METAR ve TAF raporları).

Kullanılabilir istasyonlar harita üzerinde sarı ve kırmızı noktalarla gösterilir.

İstasyonun adını görmek için fareyi noktanın üzerinde gezdirin.

Sonrasında hava gözlem ve tahminlerini görmek için tıklayın.

Haritayı değiştirmek için: yaklaştırmak için siyah artı işaretli yeşil düğmeye ve uzaklaştırmak için de eksi işaretli düğmeye hızla tıklayın; bitişik haritalar için yeşil okları kullanın.


METAR-TAF: